CheckWX is a tool to help pilots better visualize weather data.  It is not intended as a substitute for an official pre-flight weather briefing.

07:08:59 UTC

LTDA METAR
Hatay Airport
Hatay, Turkey
Current

1 hour ago

LTDA 050550Z 23013KT CAVOK 29/22 Q1002 NOSIG
Observed
Jul-5 @ 05:50 UTC
Wind
  • 230° at 13 KTS
Visibility
10,000+ meters
Flight Rules
VFR
Cloud Levels
  • Clear skies
Temperature
29°C / 84°F
Dewpoint
22°C / 72°F
Humidity
66%
Altimeter
29.59" Hg
Pressure
1001.92 hPa
Previous

2 hours ago

LTDA 050450Z 23011KT CAVOK 27/20 Q1002 NOSIG
Observed
Jul-5 @ 04:50 UTC
Wind
  • 230° at 11 KTS
Visibility
10,000+ meters
Flight Rules
VFR
Cloud Levels
  • Clear skies
Temperature
27°C / 81°F
Dewpoint
20°C / 68°F
Humidity
66%
Altimeter
29.59" Hg
Pressure
1001.92 hPa
Previous

3 hours ago

LTDA 050350Z 25005KT 220V320 9999 FEW040 26/18 Q1003 NOSIG
Observed
Jul-5 @ 03:50 UTC
Wind
  • 250° at 5 KTS
Visibility
10,000+ meters
Flight Rules
VFR
Cloud Levels
  • Few at 4,000' AGL
Temperature
26°C / 79°F
Dewpoint
18°C / 64°F
Humidity
61%
Altimeter
29.62" Hg
Pressure
1002.92 hPa